createdAt,value
2019-05-09T00:01:44.125Z,2.10
2019-05-09T00:04:14.385Z,1.83
2019-05-09T00:06:44.071Z,2.20
2019-05-09T00:09:14.010Z,2.07
2019-05-09T00:11:44.046Z,2.40
2019-05-09T00:14:14.344Z,2.00
2019-05-09T00:16:44.346Z,1.93
2019-05-09T00:19:14.416Z,1.90
2019-05-09T00:21:45.659Z,1.73
2019-05-09T00:24:15.483Z,2.10
2019-05-09T00:26:45.286Z,1.90
2019-05-09T00:29:21.192Z,2.50
2019-05-09T00:32:23.915Z,2.20
2019-05-09T00:35:05.121Z,2.37
2019-05-09T00:37:53.633Z,2.67
2019-05-09T00:40:23.919Z,2.17
2019-05-09T00:42:54.221Z,2.20
2019-05-09T00:45:54.199Z,2.20
2019-05-09T00:48:28.099Z,2.03
2019-05-09T00:50:57.722Z,2.30
2019-05-09T00:53:27.703Z,2.13
2019-05-09T00:55:57.641Z,1.70
2019-05-09T00:58:28.023Z,1.60
2019-05-09T01:00:57.669Z,1.77
2019-05-09T01:03:28.284Z,2.17
2019-05-09T01:05:58.011Z,1.60
2019-05-09T01:08:27.989Z,1.43
2019-05-09T01:11:09.324Z,1.90
2019-05-09T01:13:29.427Z,1.60
2019-05-09T01:15:59.163Z,1.40
2019-05-09T01:18:29.076Z,1.53
2019-05-09T01:20:59.263Z,1.80
2019-05-09T01:23:29.441Z,1.60
2019-05-09T01:25:59.434Z,1.90
2019-05-09T01:28:29.727Z,1.27
2019-05-09T01:30:59.423Z,1.50
2019-05-09T01:33:53.419Z,1.70
2019-05-09T01:36:23.622Z,2.27
2019-05-09T01:38:53.951Z,1.50
2019-05-09T01:41:30.510Z,1.47
2019-05-09T01:43:55.625Z,2.07
2019-05-09T01:46:25.234Z,1.90
2019-05-09T01:48:55.487Z,2.13
2019-05-09T01:51:25.252Z,1.67
2019-05-09T01:53:55.234Z,2.20
2019-05-09T01:56:25.283Z,1.90
2019-05-09T01:58:55.131Z,2.23
2019-05-09T02:01:24.908Z,2.33
2019-05-09T02:03:56.156Z,2.20
2019-05-09T02:06:25.983Z,2.07
2019-05-09T02:08:55.899Z,2.77
2019-05-09T02:11:39.272Z,2.53
2019-05-09T02:13:57.597Z,1.90
2019-05-09T02:16:46.360Z,2.53
2019-05-09T02:19:35.041Z,3.03
2019-05-09T02:22:23.742Z,2.50
2019-05-09T02:24:53.617Z,3.30
2019-05-09T02:27:24.154Z,2.97
2019-05-09T02:29:54.434Z,2.73
2019-05-09T02:32:27.658Z,3.10
2019-05-09T02:34:57.340Z,2.57
2019-05-09T02:37:28.778Z,2.97
2019-05-09T02:39:59.118Z,2.73
2019-05-09T02:42:29.053Z,3.10
2019-05-09T02:44:59.590Z,3.10
2019-05-09T02:47:29.387Z,2.73
2019-05-09T02:49:59.255Z,3.20
2019-05-09T02:52:28.984Z,3.00
2019-05-09T02:54:58.751Z,2.80
2019-05-09T02:57:29.511Z,3.10
2019-05-09T03:00:20.049Z,3.30
2019-05-09T03:03:09.342Z,3.40
2019-05-09T03:05:38.598Z,2.60
2019-05-09T03:08:09.503Z,2.97
2019-05-09T03:10:39.553Z,3.10
2019-05-09T03:13:09.680Z,3.53
2019-05-09T03:15:39.724Z,3.80
2019-05-09T03:18:09.528Z,4.13
2019-05-09T03:21:04.758Z,3.93
2019-05-09T03:23:34.675Z,4.60
2019-05-09T03:26:05.018Z,4.53
2019-05-09T03:28:49.202Z,5.10
2019-05-09T03:31:20.671Z,4.90
2019-05-09T03:33:51.276Z,5.47
2019-05-09T03:36:21.681Z,5.87
2019-05-09T03:38:51.616Z,5.97
2019-05-09T03:41:21.402Z,6.17
2019-05-09T03:43:51.343Z,5.67
2019-05-09T03:46:28.082Z,6.03
2019-05-09T03:48:59.323Z,5.87
2019-05-09T03:51:29.358Z,6.60
2019-05-09T03:53:59.171Z,6.47
2019-05-09T03:56:33.836Z,6.30
2019-05-09T03:59:03.635Z,6.47
2019-05-09T04:01:33.697Z,6.60
2019-05-09T04:04:04.344Z,7.20
2019-05-09T04:06:34.187Z,7.60
2019-05-09T04:09:07.549Z,7.13
2019-05-09T04:11:38.116Z,6.77
2019-05-09T04:14:12.422Z,6.87
2019-05-09T04:16:42.411Z,7.00
2019-05-09T04:19:12.032Z,6.50
2019-05-09T04:21:41.865Z,7.53
2019-05-09T04:24:11.784Z,6.30
2019-05-09T04:26:49.716Z,6.27
2019-05-09T04:29:19.626Z,7.33
2019-05-09T04:31:49.365Z,6.20
2019-05-09T04:34:20.093Z,5.50
2019-05-09T04:36:49.983Z,5.33
2019-05-09T04:39:23.691Z,5.80
2019-05-09T04:41:54.994Z,5.10
2019-05-09T04:44:33.825Z,5.20
2019-05-09T04:47:03.933Z,4.93
2019-05-09T04:49:39.308Z,4.37
2019-05-09T04:52:07.635Z,4.90
2019-05-09T04:54:38.402Z,4.50
2019-05-09T04:57:08.391Z,4.40
2019-05-09T04:59:38.257Z,4.47
2019-05-09T05:02:27.458Z,4.10
2019-05-09T05:04:58.573Z,4.37
2019-05-09T05:07:28.821Z,4.33
2019-05-09T05:09:58.692Z,3.87
2019-05-09T05:12:28.372Z,4.30
2019-05-09T05:14:58.188Z,3.80
2019-05-09T05:17:30.634Z,3.73
2019-05-09T05:20:01.044Z,4.20
2019-05-09T05:22:40.273Z,3.33
2019-05-09T05:25:10.105Z,3.67
2019-05-09T05:27:40.021Z,3.57
2019-05-09T05:30:10.130Z,3.80
2019-05-09T05:32:49.647Z,3.60
2019-05-09T05:35:37.410Z,3.50
2019-05-09T05:38:08.505Z,3.23
2019-05-09T05:40:45.279Z,3.90
2019-05-09T05:43:10.035Z,2.90
2019-05-09T05:45:47.929Z,3.83
2019-05-09T05:48:21.955Z,3.53
2019-05-09T05:50:51.751Z,4.33
2019-05-09T05:53:21.510Z,3.33
2019-05-09T05:55:52.765Z,3.23
2019-05-09T06:08:21.253Z,2.70
2019-05-09T06:13:21.064Z,2.30
2019-05-09T06:15:51.398Z,2.40
2019-05-09T06:18:21.577Z,2.20
2019-05-09T06:20:51.932Z,2.20
2019-05-09T06:23:22.266Z,2.65
2019-05-09T06:30:50.199Z,1.53
2019-05-09T06:33:20.103Z,1.60
2019-05-09T06:38:19.011Z,1.60
2019-05-09T06:43:18.774Z,1.63
2019-05-09T06:46:19.712Z,2.33
2019-05-09T06:56:19.207Z,2.00
2019-05-09T07:46:14.891Z,1.30
2019-05-09T07:48:45.238Z,1.50
2019-05-09T08:16:14.815Z,1.50
2019-05-09T08:18:44.614Z,1.77
2019-05-09T08:21:14.233Z,1.80
2019-05-09T08:23:44.111Z,1.73
2019-05-09T08:26:14.513Z,2.10
2019-05-09T08:28:44.606Z,1.90
2019-05-09T08:31:14.748Z,1.80
2019-05-09T08:33:44.606Z,1.80
2019-05-09T08:36:14.598Z,1.40
2019-05-09T08:38:44.658Z,1.47
2019-05-09T08:41:18.363Z,1.50
2019-05-09T08:43:48.366Z,1.57
2019-05-09T08:46:18.413Z,2.10
2019-05-09T08:48:48.730Z,1.67
2019-05-09T08:51:37.397Z,3.13
2019-05-09T08:53:59.491Z,2.07
2019-05-09T08:56:29.769Z,1.60
2019-05-09T08:59:02.160Z,2.50
2019-05-09T09:01:50.606Z,1.90
2019-05-09T09:04:04.013Z,2.07
2019-05-09T09:06:34.056Z,2.20
2019-05-09T09:09:04.928Z,2.27
2019-05-09T09:19:01.354Z,1.90
2019-05-09T09:21:31.304Z,1.50
2019-05-09T09:24:01.097Z,1.67
2019-05-09T09:26:30.899Z,1.53
2019-05-09T09:29:00.676Z,1.80
2019-05-09T09:31:30.638Z,1.80
2019-05-09T09:34:00.421Z,1.80
2019-05-09T09:36:30.272Z,1.60
2019-05-09T09:39:02.963Z,1.87
2019-05-09T09:41:31.884Z,1.97
2019-05-09T09:44:02.046Z,1.70
2019-05-09T09:46:31.863Z,1.77
2019-05-09T09:49:01.735Z,1.80
2019-05-09T09:51:31.919Z,1.27
2019-05-09T09:54:01.695Z,1.40
2019-05-09T09:56:32.514Z,1.33
2019-05-09T09:59:20.489Z,1.77
2019-05-09T10:01:51.235Z,1.43
2019-05-09T10:04:24.371Z,1.50
2019-05-09T10:06:53.208Z,2.03
2019-05-09T10:09:23.284Z,2.10
2019-05-09T10:11:56.865Z,2.50
2019-05-09T10:14:34.307Z,1.73
2019-05-09T10:17:17.911Z,1.90
2019-05-09T10:20:10.267Z,1.80
2019-05-09T10:22:46.837Z,2.13
2019-05-09T10:25:11.602Z,2.57
2019-05-09T10:27:41.563Z,2.40
2019-05-09T10:30:11.923Z,2.40
2019-05-09T10:32:41.578Z,2.17
2019-05-09T10:35:14.342Z,3.17
2019-05-09T10:37:44.057Z,2.60
2019-05-09T10:40:17.230Z,2.70
2019-05-09T10:42:51.719Z,1.90
2019-05-09T10:45:29.259Z,3.00
2019-05-09T10:47:59.069Z,2.60
2019-05-09T10:50:33.977Z,3.27
2019-05-09T10:53:00.505Z,3.10
2019-05-09T10:55:30.325Z,3.00
2019-05-09T10:58:02.389Z,2.20
2019-05-09T11:00:31.542Z,2.60
2019-05-09T11:03:01.587Z,2.63
2019-05-09T11:05:31.389Z,2.43
2019-05-09T11:08:01.536Z,2.33
2019-05-09T11:10:32.799Z,2.20
2019-05-09T11:13:03.208Z,2.30
2019-05-09T11:15:33.028Z,1.80
2019-05-09T11:18:02.702Z,2.40
2019-05-09T11:20:32.781Z,1.93
2019-05-09T11:23:02.864Z,1.70
2019-05-09T11:25:32.708Z,1.63
2019-05-09T11:28:11.280Z,2.00
2019-05-09T11:30:34.640Z,1.93
2019-05-09T11:33:04.565Z,1.80
2019-05-09T11:35:34.273Z,1.87
2019-05-09T11:38:04.313Z,2.00
2019-05-09T11:40:34.419Z,2.23
2019-05-09T11:43:04.546Z,1.37
2019-05-09T11:45:34.530Z,1.60
2019-05-09T11:48:04.270Z,1.80
2019-05-09T11:50:34.083Z,1.60
2019-05-09T11:53:04.438Z,1.63
2019-05-09T11:55:37.360Z,1.80
2019-05-09T11:58:08.381Z,1.50
2019-05-09T12:00:38.188Z,1.47
2019-05-09T12:03:09.132Z,1.47
2019-05-09T12:05:39.052Z,1.80
2019-05-09T12:08:08.863Z,1.70
2019-05-09T12:10:39.083Z,1.80
2019-05-09T12:13:08.897Z,1.73
2019-05-09T12:15:39.124Z,1.53
2019-05-09T12:18:11.663Z,1.50
2019-05-09T12:20:41.017Z,1.43
2019-05-09T12:23:10.814Z,1.67
2019-05-09T12:25:40.720Z,1.60
2019-05-09T12:28:10.558Z,1.40
2019-05-09T12:30:40.535Z,1.60
2019-05-09T12:33:10.416Z,1.50
2019-05-09T12:35:40.212Z,1.50
2019-05-09T12:38:10.036Z,2.17
2019-05-09T12:40:39.714Z,1.67
2019-05-09T12:43:09.829Z,1.60
2019-05-09T12:45:39.601Z,1.80
2019-05-09T12:48:15.006Z,2.30
2019-05-09T12:50:41.161Z,2.03
2019-05-09T12:53:10.949Z,1.63
2019-05-09T12:55:40.719Z,1.83
2019-05-09T12:58:27.868Z,1.97
2019-05-09T13:00:58.620Z,1.80
2019-05-09T13:03:29.488Z,1.90
2019-05-09T13:05:59.773Z,1.60
2019-05-09T13:08:29.455Z,1.87
2019-05-09T13:11:02.488Z,1.70
2019-05-09T13:13:32.743Z,1.90
2019-05-09T13:16:18.104Z,1.73
2019-05-09T14:04:08.219Z,1.60
2019-05-09T14:06:38.708Z,1.80
2019-05-09T14:19:30.089Z,1.70
2019-05-09T14:21:39.982Z,1.90
2019-05-09T14:24:14.460Z,1.83
2019-05-09T14:26:41.385Z,3.10
2019-05-09T14:29:12.867Z,2.00
2019-05-09T14:31:42.741Z,1.73
2019-05-09T14:34:12.639Z,1.80
2019-05-09T14:36:45.609Z,1.73
2019-05-09T14:39:14.196Z,2.07
2019-05-09T14:41:47.002Z,1.70
2019-05-09T14:44:18.151Z,2.00
2019-05-09T14:46:48.217Z,1.73
2019-05-09T14:49:18.178Z,2.10
2019-05-09T14:51:50.074Z,1.70
2019-05-09T14:54:19.901Z,2.50
2019-05-09T14:56:49.796Z,1.50
2019-05-09T14:59:19.759Z,1.90
2019-05-09T15:01:50.022Z,1.13
2019-05-09T15:04:19.914Z,1.20
2019-05-09T15:06:49.639Z,1.50
2019-05-09T15:09:19.340Z,1.97
2019-05-09T15:11:49.126Z,1.60
2019-05-09T15:14:19.267Z,1.30
2019-05-09T15:16:49.164Z,1.37
2019-05-09T15:19:18.936Z,1.73
2019-05-09T15:21:49.034Z,1.40
2019-05-09T15:24:19.490Z,1.63
2019-05-09T15:26:49.574Z,1.70
2019-05-09T15:29:19.206Z,1.70
2019-05-09T15:31:54.387Z,1.60
2019-05-09T15:34:20.692Z,2.00
2019-05-09T15:36:50.792Z,1.30
2019-05-09T15:39:21.205Z,1.60
2019-05-09T15:41:51.023Z,1.73
2019-05-09T15:44:20.776Z,1.63
2019-05-09T15:46:54.923Z,1.60
2019-05-09T15:49:28.334Z,1.47
2019-05-09T15:51:58.503Z,1.53
2019-05-09T15:54:29.377Z,1.40
2019-05-09T15:56:59.638Z,1.63
2019-05-09T15:59:29.533Z,1.20
2019-05-09T16:01:59.432Z,1.50
2019-05-09T16:04:29.487Z,1.50
2019-05-09T16:06:59.344Z,1.90
2019-05-09T16:09:29.775Z,1.93
2019-05-09T16:11:59.560Z,1.50
2019-05-09T16:14:29.242Z,1.40
2019-05-09T16:16:59.174Z,1.17
2019-05-09T16:19:28.967Z,1.30
2019-05-09T16:22:01.929Z,1.73
2019-05-09T16:24:31.239Z,1.40
2019-05-09T16:27:01.191Z,1.40
2019-05-09T16:29:32.430Z,1.30
2019-05-09T16:32:02.652Z,1.13
2019-05-09T16:34:32.582Z,1.30
2019-05-09T16:37:02.406Z,1.80
2019-05-09T16:39:32.555Z,1.70
2019-05-09T16:42:02.843Z,1.70
2019-05-09T16:44:32.722Z,1.90
2019-05-09T16:47:02.652Z,2.10
2019-05-09T16:49:32.550Z,2.00
2019-05-09T16:52:02.667Z,2.00
2019-05-09T16:54:35.733Z,1.80
2019-05-09T16:57:08.083Z,2.70
2019-05-09T16:59:38.854Z,2.43
2019-05-09T17:02:18.902Z,2.70
2019-05-09T17:04:40.343Z,2.73
2019-05-09T17:07:10.184Z,2.70
2019-05-09T17:09:44.555Z,2.50
2019-05-09T17:12:14.384Z,2.00
2019-05-09T17:14:44.496Z,2.13
2019-05-09T17:17:14.231Z,1.70
2019-05-09T17:19:44.040Z,2.23
2019-05-09T17:22:35.257Z,1.60
2019-05-09T17:25:05.022Z,1.70
2019-05-09T17:27:34.842Z,1.73
2019-05-09T17:30:05.225Z,1.70
2019-05-09T17:32:37.837Z,1.40
2019-05-09T17:35:07.758Z,1.70
2019-05-09T17:37:38.111Z,2.03
2019-05-09T17:40:08.249Z,1.67
2019-05-09T17:42:38.275Z,1.40
2019-05-09T17:45:08.503Z,1.97
2019-05-09T17:47:38.218Z,1.70
2019-05-09T17:50:08.392Z,2.10
2019-05-09T17:52:38.522Z,2.20
2019-05-09T17:55:09.072Z,3.20
2019-05-09T17:57:38.920Z,2.10
2019-05-09T18:00:10.012Z,2.63
2019-05-09T18:02:39.803Z,2.33
2019-05-09T18:05:09.446Z,2.20
2019-05-09T18:07:39.758Z,1.90
2019-05-09T18:10:10.105Z,2.60
2019-05-09T18:12:39.907Z,1.73
2019-05-09T18:15:10.036Z,2.63
2019-05-09T18:17:39.898Z,2.83
2019-05-09T18:20:09.914Z,3.37
2019-05-09T18:22:39.696Z,3.90
2019-05-09T18:25:10.209Z,3.33
2019-05-09T18:27:40.037Z,2.17
2019-05-09T18:30:10.974Z,1.60
2019-05-09T18:32:47.657Z,2.10
2019-05-09T18:35:20.034Z,1.53
2019-05-09T18:37:50.470Z,1.53
2019-05-09T18:40:21.255Z,1.67
2019-05-09T18:42:50.938Z,2.63
2019-05-09T18:45:21.661Z,2.13
2019-05-09T18:47:51.645Z,3.00
2019-05-09T18:50:21.824Z,2.87
2019-05-09T18:52:51.532Z,2.80
2019-05-09T18:55:21.596Z,3.10
2019-05-09T18:57:51.774Z,3.10
2019-05-09T19:00:22.437Z,3.10
2019-05-09T19:02:52.899Z,2.60
2019-05-09T19:05:24.823Z,2.80
2019-05-09T19:07:54.862Z,2.10
2019-05-09T19:10:25.696Z,1.50
2019-05-09T19:12:55.495Z,1.77
2019-05-09T19:16:00.292Z,1.73
2019-05-09T19:18:58.158Z,1.70
2019-05-09T19:21:50.008Z,1.63
2019-05-09T19:24:20.393Z,1.83
2019-05-09T19:26:50.257Z,1.37
2019-05-09T19:29:20.016Z,1.87
2019-05-09T19:31:49.879Z,1.43
2019-05-09T19:34:19.842Z,1.67
2019-05-09T19:36:49.573Z,1.87
2019-05-09T19:39:19.747Z,1.60
2019-05-09T19:41:49.539Z,2.00
2019-05-09T19:44:19.681Z,2.00
2019-05-09T19:46:50.918Z,1.87
2019-05-09T19:49:21.021Z,2.60
2019-05-09T19:51:50.721Z,2.40
2019-05-09T19:54:20.568Z,3.07
2019-05-09T19:56:50.456Z,2.80
2019-05-09T19:59:20.873Z,3.80
2019-05-09T20:01:50.898Z,3.63
2019-05-09T20:04:20.941Z,4.90
2019-05-09T20:06:51.228Z,4.27
2019-05-09T20:09:43.485Z,5.17
2019-05-09T20:12:31.298Z,5.60
2019-05-09T20:15:01.560Z,7.13
2019-05-09T20:17:31.262Z,6.27
2019-05-09T20:20:01.057Z,7.13
2019-05-09T20:22:30.773Z,6.80
2019-05-09T20:25:01.030Z,6.90
2019-05-09T20:27:31.211Z,6.40
2019-05-09T20:30:01.371Z,6.37
2019-05-09T20:32:31.906Z,6.83
2019-05-09T20:35:01.969Z,5.70
2019-05-09T20:37:32.017Z,6.00
2019-05-09T20:40:02.354Z,6.03
2019-05-09T20:42:32.372Z,5.30
2019-05-09T20:45:02.345Z,5.10
2019-05-09T20:47:33.513Z,5.27
2019-05-09T20:50:03.722Z,4.90
2019-05-09T20:52:33.759Z,5.60
2019-05-09T20:55:04.357Z,5.20
2019-05-09T20:57:34.607Z,5.10
2019-05-09T21:00:04.846Z,5.20
2019-05-09T21:02:34.911Z,6.27
2019-05-09T21:05:05.175Z,6.73
2019-05-09T21:07:35.687Z,5.00
2019-05-09T21:10:06.232Z,6.30
2019-05-09T21:12:36.723Z,6.40
2019-05-09T21:15:07.282Z,6.33
2019-05-09T21:17:37.577Z,6.43
2019-05-09T21:20:07.915Z,5.80
2019-05-09T21:22:38.071Z,5.93
2019-05-09T21:25:08.896Z,6.03
2019-05-09T21:27:39.413Z,7.07
2019-05-09T21:30:09.886Z,7.10
2019-05-09T21:32:40.032Z,6.50
2019-05-09T21:35:10.323Z,6.10
2019-05-09T21:37:40.578Z,7.73
2019-05-09T21:40:12.119Z,8.80
2019-05-09T21:42:41.991Z,8.87
2019-05-09T21:45:12.023Z,9.20
2019-05-09T21:47:41.772Z,9.83
2019-05-09T21:50:11.761Z,10.80
2019-05-09T21:52:41.407Z,11.23
2019-05-09T21:55:12.099Z,11.70
2019-05-09T21:57:42.353Z,11.13
2019-05-09T22:00:16.322Z,11.77
2019-05-09T22:02:46.588Z,11.97
2019-05-09T22:05:17.013Z,11.93
2019-05-09T22:07:47.213Z,11.03
2019-05-09T22:10:17.343Z,11.93
2019-05-09T22:12:47.339Z,11.47
2019-05-09T22:15:17.427Z,11.27
2019-05-09T22:17:47.281Z,11.47
2019-05-09T22:20:17.394Z,11.20
2019-05-09T22:22:47.531Z,10.83
2019-05-09T22:25:17.885Z,10.13
2019-05-09T22:27:48.033Z,9.47
2019-05-09T22:30:18.494Z,9.27
2019-05-09T22:32:48.627Z,8.53
2019-05-09T22:35:19.258Z,8.30
2019-05-09T22:37:49.172Z,9.03
2019-05-09T22:40:19.199Z,8.50
2019-05-09T22:42:49.379Z,8.80
2019-05-09T22:45:19.725Z,8.13
2019-05-09T22:47:49.731Z,9.00
2019-05-09T22:50:20.011Z,8.37
2019-05-09T22:52:49.792Z,9.00
2019-05-09T22:55:19.568Z,9.77
2019-05-09T22:57:49.424Z,8.53
2019-05-09T23:00:19.640Z,7.70
2019-05-09T23:02:49.518Z,9.27
2019-05-09T23:05:19.624Z,7.83
2019-05-09T23:07:49.372Z,7.80
2019-05-09T23:10:19.058Z,8.70
2019-05-09T23:12:48.882Z,9.30
2019-05-09T23:15:19.509Z,9.33
2019-05-09T23:17:49.228Z,9.37
2019-05-09T23:20:38.224Z,9.10
2019-05-09T23:23:27.221Z,9.40
2019-05-09T23:25:57.148Z,8.87
2019-05-09T23:28:27.658Z,10.20
2019-05-09T23:30:59.564Z,10.63
2019-05-09T23:33:31.826Z,10.00
2019-05-09T23:36:01.616Z,9.07
2019-05-09T23:38:31.828Z,9.50
2019-05-09T23:41:01.984Z,9.03
2019-05-09T23:43:32.386Z,9.87
2019-05-09T23:46:02.274Z,8.23
2019-05-09T23:48:32.062Z,8.73
2019-05-09T23:51:01.915Z,7.00
2019-05-09T23:53:37.383Z,6.50
2019-05-09T23:56:25.284Z,6.03
2019-05-09T23:59:12.764Z,6.20
